Time;durP1;ratioP1;P1;durP2;ratioP2;P2;SDS_P1;SDS_P2;PMS_P1;PMS_P2;Temp;Humidity;BMP_temperature;BMP_pressure;BME280_temperature;BME280_humidity;BME280_pressure;Samples;Min_cycle;Max_cycle;Signal;HPM_P1;HPM_P2
2023/09/08 00:00:26;;;;;;;2.93;2.60;;;14.10;85.80;;;;;;4933727;29;20188;-71
2023/09/08 00:02:53;;;;;;;3.47;3.10;;;14.10;86.00;;;;;;4935545;29;20192;-73
2023/09/08 00:05:21;;;;;;;4.60;3.37;;;14.10;86.00;;;;;;4932254;29;20189;-72
2023/09/08 00:07:48;;;;;;;3.83;3.43;;;14.10;86.40;;;;;;4931656;29;20220;-73
2023/09/08 00:10:15;;;;;;;4.50;4.10;;;14.10;86.50;;;;;;4931379;29;20214;-72
2023/09/08 00:12:43;;;;;;;6.10;4.03;;;14.00;86.60;;;;;;4936897;29;20600;-72
2023/09/08 00:15:11;;;;;;;4.90;4.40;;;14.00;87.00;;;;;;4933760;29;20203;-71
2023/09/08 00:17:38;;;;;;;5.67;4.77;;;13.90;87.00;;;;;;4936033;29;20291;-69
2023/09/08 00:20:16;;;;;;;5.07;4.67;;;13.80;87.50;;;;;;4933505;29;20239;-73
2023/09/08 00:22:44;;;;;;;4.80;4.40;;;13.80;88.00;;;;;;4918884;29;20196;-72
2023/09/08 00:25:11;;;;;;;4.73;4.33;;;13.80;88.00;;;;;;4934690;29;20577;-72
2023/09/08 00:27:39;;;;;;;5.50;5.10;;;13.80;88.50;;;;;;4933621;29;20578;-71
2023/09/08 00:30:07;;;;;;;6.67;6.07;;;14.00;89.10;;;;;;4933698;29;20669;-71
2023/09/08 00:32:34;;;;;;;6.60;6.10;;;14.00;89.20;;;;;;4934400;29;20351;-71
2023/09/08 00:35:02;;;;;;;7.40;6.80;;;14.00;89.10;;;;;;4936040;29;20219;-73
2023/09/08 00:37:29;;;;;;;10.27;6.97;;;13.80;88.80;;;;;;4935615;29;20279;-72
2023/09/08 00:39:56;;;;;;;10.00;9.10;;;13.80;89.30;;;;;;4934199;29;20222;-72
2023/09/08 00:42:23;;;;;;;9.00;8.30;;;13.80;89.70;;;;;;4930358;29;20280;-73
2023/09/08 00:44:51;;;;;;;7.80;7.07;;;13.50;89.60;;;;;;4935009;29;20830;-72
2023/09/08 00:47:18;;;;;;;8.73;7.87;;;13.50;89.80;;;;;;4933327;29;20236;-72
2023/09/08 00:49:46;;;;;;;8.47;7.77;;;13.30;89.70;;;;;;4933377;29;20594;-71
2023/09/08 00:52:13;;;;;;;9.23;8.40;;;13.20;89.60;;;;;;4933587;29;20582;-72
2023/09/08 00:54:41;;;;;;;7.73;7.17;;;13.30;90.10;;;;;;4934368;29;20183;-71
2023/09/08 00:57:09;;;;;;;8.90;7.53;;;13.40;90.40;;;;;;4931397;29;20193;-70
2023/09/08 00:59:36;;;;;;;8.07;7.47;;;13.50;90.70;;;;;;4932262;29;20191;-70
2023/09/08 01:02:04;;;;;;;6.70;6.10;;;13.40;90.40;;;;;;4934512;29;20188;-70
2023/09/08 01:04:33;;;;;;;5.73;5.23;;;13.30;90.00;;;;;;4933353;29;20192;-71
2023/09/08 01:07:01;;;;;;;10.73;7.17;;;13.30;89.80;;;;;;4934300;29;20644;-69
2023/09/08 01:09:29;;;;;;;5.53;5.03;;;13.50;90.10;;;;;;4934317;29;20188;-71
2023/09/08 01:12:00;;;;;;;4.63;4.23;;;13.20;88.90;;;;;;4933056;29;20279;-73
2023/09/08 01:14:28;;;;;;;5.03;4.57;;;13.10;88.90;;;;;;4933267;29;20196;-70
2023/09/08 01:16:55;;;;;;;8.73;5.33;;;13.10;89.10;;;;;;4933479;29;20199;-72
2023/09/08 01:19:23;;;;;;;5.57;5.17;;;13.20;89.30;;;;;;4935476;29;20184;-70
2023/09/08 01:22:15;;;;;;;4.90;4.50;;;13.10;88.70;;;;;;4927216;29;20203;-71
2023/09/08 01:25:15;;;;;;;6.30;5.70;;;13.20;88.80;;;;;;4933310;29;20579;-71
2023/09/08 01:27:51;;;;;;;4.50;4.27;;;13.50;88.90;;;;;;4933383;29;20216;-74
2023/09/08 01:30:19;;;;;;;7.53;6.83;;;13.50;88.60;;;;;;4932420;29;20179;-72
2023/09/08 01:32:47;;;;;;;5.20;4.90;;;13.70;88.90;;;;;;4932312;29;20192;-73
2023/09/08 01:35:15;;;;;;;4.20;4.00;;;13.60;87.90;;;;;;4930894;29;20226;-76
2023/09/08 01:37:48;;;;;;;4.60;4.30;;;13.60;86.70;;;;;;4928596;29;20192;-72
2023/09/08 01:40:16;;;;;;;4.20;3.73;;;13.80;87.40;;;;;;4933218;29;20320;-71
2023/09/08 01:42:44;;;;;;;4.87;4.53;;;13.90;86.50;;;;;;4933285;29;20275;-70
2023/09/08 01:45:12;;;;;;;3.43;3.20;;;13.80;85.50;;;;;;4932137;29;20231;-70
2023/09/08 01:47:39;;;;;;;3.37;3.17;;;13.90;84.90;;;;;;4932981;29;20215;-71
2023/09/08 01:50:07;;;;;;;5.67;3.30;;;13.80;83.70;;;;;;4931369;29;20192;-71
2023/09/08 01:52:35;;;;;;;4.50;4.10;;;14.20;84.90;;;;;;4931926;29;20547;-74
2023/09/08 01:55:02;;;;;;;3.53;2.90;;;14.50;84.40;;;;;;4933066;29;20176;-71
2023/09/08 01:57:30;;;;;;;4.07;2.60;;;14.60;82.00;;;;;;4933687;29;20192;-73
2023/09/08 01:59:57;;;;;;;2.17;1.90;;;14.60;81.80;;;;;;4930542;29;20184;-69
2023/09/08 02:02:31;;;;;;;2.07;1.50;;;14.80;81.00;;;;;;4932312;29;20175;-71
2023/09/08 02:04:59;;;;;;;2.63;1.60;;;15.00;80.00;;;;;;4932550;29;20198;-69
2023/09/08 02:07:26;;;;;;;2.73;1.80;;;14.90;80.50;;;;;;4926441;29;20216;-71
2023/09/08 02:09:53;;;;;;;1.90;1.77;;;15.00;80.50;;;;;;4924307;29;20188;-70
2023/09/08 02:12:22;;;;;;;2.90;1.87;;;14.80;78.90;;;;;;4931762;29;20187;-68
2023/09/08 02:14:51;;;;;;;2.10;1.80;;;14.70;79.30;;;;;;4934224;29;20218;-70
2023/09/08 02:17:19;;;;;;;2.47;1.70;;;14.70;79.00;;;;;;4933458;29;20363;-70
2023/09/08 02:19:47;;;;;;;1.83;1.50;;;14.60;79.50;;;;;;4933670;29;20189;-70
2023/09/08 02:22:14;;;;;;;2.27;1.63;;;14.70;79.80;;;;;;4933367;29;20546;-71
2023/09/08 02:24:42;;;;;;;1.80;1.30;;;14.60;78.80;;;;;;4933827;29;20198;-69
2023/09/08 02:27:09;;;;;;;1.63;1.53;;;14.70;77.90;;;;;;4933127;29;20309;-68
2023/09/08 02:29:36;;;;;;;2.30;1.53;;;14.80;77.30;;;;;;4933034;29;20283;-68
2023/09/08 02:32:04;;;;;;;2.03;1.20;;;14.90;76.10;;;;;;4932978;29;20192;-71
2023/09/08 02:34:36;;;;;;;1.20;1.10;;;14.90;75.40;;;;;;4933796;29;20688;-71
2023/09/08 02:37:04;;;;;;;1.87;1.20;;;14.90;75.50;;;;;;4931122;29;20271;-70
2023/09/08 02:39:32;;;;;;;1.13;1.10;;;15.10;75.90;;;;;;4933507;29;20187;-69
2023/09/08 02:42:00;;;;;;;1.00;1.00;;;15.30;76.30;;;;;;4933226;29;20597;-72
2023/09/08 02:44:27;;;;;;;1.30;1.20;;;15.40;74.70;;;;;;4931783;29;20180;-69
2023/09/08 02:46:54;;;;;;;2.00;1.10;;;15.40;74.90;;;;;;4932694;29;20339;-69
2023/09/08 02:49:22;;;;;;;3.60;1.27;;;15.30;74.00;;;;;;4933736;29;20663;-71
2023/09/08 02:51:49;;;;;;;1.10;1.10;;;15.30;73.30;;;;;;4931394;29;20191;-68
2023/09/08 02:54:16;;;;;;;1.33;1.10;;;15.40;74.00;;;;;;4933694;29;20191;-70
2023/09/08 02:56:44;;;;;;;1.03;1.00;;;15.30;73.30;;;;;;4924945;29;20670;-69
2023/09/08 02:59:11;;;;;;;1.57;1.07;;;15.20;71.80;;;;;;4933551;29;20235;-72
2023/09/08 03:01:38;;;;;;;2.63;1.20;;;15.30;72.30;;;;;;4933499;29;20236;-71
2023/09/08 03:04:06;;;;;;;3.00;1.40;;;15.60;73.50;;;;;;4932189;29;20208;-72
2023/09/08 03:06:34;;;;;;;4.40;1.00;;;15.80;72.30;;;;;;4933446;29;20273;-72
2023/09/08 03:09:02;;;;;;;2.53;1.10;;;15.90;67.90;;;;;;4933784;29;20225;-72
2023/09/08 03:11:29;;;;;;;2.93;0.90;;;16.20;67.40;;;;;;4933254;29;20196;-71
2023/09/08 03:13:57;;;;;;;0.80;0.80;;;16.40;66.10;;;;;;4933318;29;20661;-70
2023/09/08 03:16:24;;;;;;;2.17;0.80;;;16.30;66.90;;;;;;4935354;29;20280;-71
2023/09/08 03:18:52;;;;;;;1.57;1.03;;;16.10;66.50;;;;;;4933665;29;20188;-72
2023/09/08 03:21:22;;;;;;;1.27;1.00;;;16.10;68.30;;;;;;4935443;29;20240;-73
2023/09/08 03:23:49;;;;;;;2.57;1.00;;;16.00;67.50;;;;;;4936996;29;20192;-73
2023/09/08 03:26:17;;;;;;;2.37;1.50;;;16.70;66.70;;;;;;4935984;29;20345;-71
2023/09/08 03:28:44;;;;;;;4.17;2.00;;;17.50;63.10;;;;;;4933228;29;20195;-71
2023/09/08 03:31:11;;;;;;;3.00;1.60;;;17.70;61.00;;;;;;4936636;29;20527;-72
2023/09/08 03:33:39;;;;;;;5.10;1.07;;;17.30;59.20;;;;;;4931186;29;20191;-73
2023/09/08 03:36:06;;;;;;;4.50;1.10;;;17.00;61.40;;;;;;4936164;29;20235;-73
2023/09/08 03:38:36;;;;;;;2.73;1.10;;;17.10;62.50;;;;;;4937351;29;20284;-71
2023/09/08 03:41:04;;;;;;;2.20;1.10;;;17.50;59.20;;;;;;4919488;29;20278;-72
2023/09/08 03:43:31;;;;;;;0.93;0.70;;;18.00;58.10;;;;;;4936291;29;20300;-73
2023/09/08 03:46:01;;;;;;;5.30;1.00;;;18.70;53.90;;;;;;4933759;29;20203;-72
2023/09/08 03:48:29;;;;;;;2.33;0.77;;;18.80;53.10;;;;;;4936210;29;20714;-74
2023/09/08 03:50:56;;;;;;;1.60;0.80;;;18.80;51.90;;;;;;4932763;29;20251;-71
2023/09/08 03:53:24;;;;;;;1.20;0.77;;;19.10;49.70;;;;;;4936300;29;20204;-72
2023/09/08 03:55:51;;;;;;;1.87;0.80;;;19.50;50.50;;;;;;4936161;29;20235;-69
2023/09/08 03:58:18;;;;;;;1.60;0.60;;;20.30;46.30;;;;;;4935771;29;20220;-72
2023/09/08 04:00:46;;;;;;;1.63;0.70;;;20.60;46.10;;;;;;4937012;29;20482;-71
2023/09/08 04:03:13;;;;;;;1.97;0.60;;;21.10;45.10;;;;;;4936247;29;20196;-72
2023/09/08 04:05:40;;;;;;;1.13;0.70;;;21.30;45.80;;;;;;4936220;29;20187;-71
2023/09/08 04:08:08;;;;;;;1.60;0.77;;;21.50;40.90;;;;;;4933394;29;20233;-71
2023/09/08 04:10:38;;;;;;;2.93;0.73;;;21.30;38.10;;;;;;4936400;29;20180;-73
2023/09/08 04:13:05;;;;;;;3.40;0.93;;;21.60;41.00;;;;;;4934796;29;20639;-71
2023/09/08 04:15:33;;;;;;;2.07;0.77;;;21.90;39.90;;;;;;4935982;29;20199;-72
2023/09/08 04:18:00;;;;;;;0.80;0.40;;;21.80;35.90;;;;;;4933001;29;20214;-70
2023/09/08 04:20:28;;;;;;;2.10;0.70;;;21.50;30.20;;;;;;4930457;29;20554;-71
2023/09/08 04:22:55;;;;;;;1.07;0.63;;;21.60;27.40;;;;;;4933705;29;20202;-73
2023/09/08 04:25:22;;;;;;;3.00;0.60;;;21.40;27.70;;;;;;4931422;29;20234;-73
2023/09/08 04:27:52;;;;;;;1.37;0.70;;;21.20;27.70;;;;;;4934302;29;20549;-72
2023/09/08 04:30:21;;;;;;;1.93;0.50;;;21.40;27.50;;;;;;4932120;29;20204;-70
2023/09/08 04:32:48;;;;;;;1.50;0.53;;;21.30;28.40;;;;;;4914046;29;20192;-75
2023/09/08 04:35:16;;;;;;;1.63;0.60;;;21.40;25.90;;;;;;4932111;29;20235;-71
2023/09/08 04:37:43;;;;;;;2.60;0.50;;;21.20;26.90;;;;;;4931914;29;20199;-72
2023/09/08 04:40:11;;;;;;;1.77;0.60;;;21.40;26.50;;;;;;4931725;29;20263;-72
2023/09/08 04:42:38;;;;;;;1.77;0.40;;;21.40;24.90;;;;;;4935228;29;20272;-74
2023/09/08 04:45:06;;;;;;;0.40;0.40;;;21.80;25.50;;;;;;4932665;29;20192;-72
2023/09/08 04:47:34;;;;;;;0.80;0.50;;;21.50;25.20;;;;;;4934050;29;20235;-73
2023/09/08 04:50:01;;;;;;;1.43;0.60;;;21.40;24.70;;;;;;4931514;29;20253;-75
2023/09/08 04:52:28;;;;;;;0.90;0.50;;;21.10;25.90;;;;;;4934803;29;20643;-72
2023/09/08 04:54:56;;;;;;;0.80;0.57;;;21.80;24.90;;;;;;4935093;29;20274;-75
2023/09/08 04:57:23;;;;;;;0.70;0.33;;;22.20;24.60;;;;;;4933692;29;20582;-74
2023/09/08 04:59:50;;;;;;;0.73;0.60;;;21.70;23.20;;;;;;4934803;29;20196;-72
2023/09/08 05:02:18;;;;;;;0.80;0.50;;;22.00;23.80;;;;;;4934218;29;20262;-72
2023/09/08 05:04:45;;;;;;;1.47;0.50;;;22.50;24.00;;;;;;4934085;29;20192;-73
2023/09/08 05:07:13;;;;;;;0.70;0.50;;;22.80;23.00;;;;;;4929532;29;20286;-72
2023/09/08 05:09:40;;;;;;;1.90;0.50;;;22.40;22.70;;;;;;4933361;29;20255;-72
2023/09/08 05:12:08;;;;;;;2.87;0.60;;;22.80;22.40;;;;;;4934050;29;20647;-72
2023/09/08 05:14:35;;;;;;;1.03;0.50;;;22.60;22.70;;;;;;4933990;29;20200;-70
2023/09/08 05:17:03;;;;;;;1.33;0.50;;;22.20;23.00;;;;;;4933505;29;20203;-74
2023/09/08 05:19:30;;;;;;;2.70;0.50;;;22.60;23.40;;;;;;4934952;29;20266;-74
2023/09/08 05:21:58;;;;;;;1.27;0.40;;;23.00;22.80;;;;;;4934241;29;20195;-71
2023/09/08 05:24:26;;;;;;;1.53;0.53;;;23.20;22.50;;;;;;4932236;29;20184;-78
2023/09/08 05:26:54;;;;;;;2.03;0.63;;;23.30;22.20;;;;;;4933118;29;20314;-73
2023/09/08 05:29:21;;;;;;;2.30;0.63;;;22.20;22.30;;;;;;4934678;29;20279;-72
2023/09/08 05:31:48;;;;;;;0.70;0.60;;;21.80;23.20;;;;;;4934196;29;20251;-72
2023/09/08 05:34:16;;;;;;;1.60;0.40;;;22.00;23.20;;;;;;4933622;29;20232;-72
2023/09/08 05:36:44;;;;;;;1.80;0.57;;;22.00;22.50;;;;;;4931118;29;20236;-74
2023/09/08 05:39:13;;;;;;;1.20;0.60;;;22.20;22.50;;;;;;4932955;29;20553;-73
2023/09/08 05:41:40;;;;;;;1.43;1.20;;;21.90;22.90;;;;;;4933556;29;20270;-75
2023/09/08 05:44:08;;;;;;;0.93;0.70;;;21.70;23.90;;;;;;4932684;29;20195;-73
2023/09/08 05:46:35;;;;;;;4.77;0.50;;;21.70;23.50;;;;;;4934222;29;20216;-72
2023/09/08 05:49:03;;;;;;;3.53;0.60;;;22.10;24.10;;;;;;4934307;29;20203;-71
2023/09/08 05:51:31;;;;;;;0.70;0.40;;;22.00;24.40;;;;;;4934168;29;20208;-70
2023/09/08 05:53:58;;;;;;;1.60;0.70;;;22.40;24.30;;;;;;4933460;29;20279;-72
2023/09/08 05:56:34;;;;;;;1.47;0.60;;;22.70;24.50;;;;;;4933467;29;20182;-71
2023/09/08 05:59:01;;;;;;;1.03;0.60;;;22.60;24.10;;;;;;4930572;29;20187;-71
2023/09/08 06:01:29;;;;;;;1.43;0.60;;;22.30;24.50;;;;;;4934257;29;20206;-71
2023/09/08 06:03:56;;;;;;;1.40;0.50;;;22.30;25.00;;;;;;4934543;29;20548;-75
2023/09/08 06:06:25;;;;;;;1.47;0.40;;;22.50;25.00;;;;;;4916806;29;20219;-70
2023/09/08 06:08:52;;;;;;;0.90;0.60;;;21.70;25.90;;;;;;4934171;29;20192;-72
2023/09/08 06:11:19;;;;;;;1.03;0.60;;;20.10;28.10;;;;;;4934047;29;20674;-74
2023/09/08 06:13:47;;;;;;;3.63;0.80;;;19.30;29.40;;;;;;4933524;29;20208;-70
2023/09/08 06:16:15;;;;;;;2.40;0.70;;;18.90;30.20;;;;;;4916258;29;20187;-72
2023/09/08 06:18:43;;;;;;;1.20;0.60;;;18.60;30.50;;;;;;4934346;29;20184;-72
2023/09/08 06:21:11;;;;;;;0.53;0.53;;;18.40;31.40;;;;;;4933757;29;20191;-74
2023/09/08 06:23:38;;;;;;;1.57;0.90;;;18.40;31.60;;;;;;4934684;29;20194;-71
2023/09/08 06:26:06;;;;;;;1.07;0.70;;;18.30;32.00;;;;;;4933258;29;20188;-73
2023/09/08 06:28:33;;;;;;;1.50;0.70;;;18.30;32.30;;;;;;4934307;29;20254;-72
2023/09/08 06:31:01;;;;;;;1.33;0.60;;;18.20;32.40;;;;;;4933534;29;20199;-70
2023/09/08 06:33:28;;;;;;;0.60;0.60;;;18.20;32.80;;;;;;4932284;29;20179;-72
2023/09/08 06:35:55;;;;;;;1.30;0.80;;;18.20;32.70;;;;;;4933470;29;20276;-71
2023/09/08 06:38:23;;;;;;;3.33;0.70;;;18.00;33.20;;;;;;4934851;29;20541;-71
2023/09/08 06:40:52;;;;;;;1.70;0.63;;;18.00;33.50;;;;;;4932866;29;20202;-71
2023/09/08 06:43:20;;;;;;;0.97;0.60;;;18.20;33.90;;;;;;4934277;29;20672;-72
2023/09/08 06:45:50;;;;;;;2.03;0.80;;;18.10;34.00;;;;;;4933871;29;20637;-73
2023/09/08 06:48:18;;;;;;;1.20;0.70;;;18.50;33.30;;;;;;4929459;29;20210;-73
2023/09/08 06:50:45;;;;;;;0.87;0.70;;;19.50;31.90;;;;;;4930794;29;20180;-71
2023/09/08 06:53:12;;;;;;;0.70;0.67;;;19.80;31.60;;;;;;4931342;29;20192;-72
2023/09/08 06:55:40;;;;;;;1.00;0.70;;;20.30;31.30;;;;;;4935456;29;20681;-68
2023/09/08 06:58:07;;;;;;;1.20;1.00;;;19.90;32.00;;;;;;4934912;29;20187;-71
2023/09/08 07:00:34;;;;;;;2.60;0.83;;;19.70;33.20;;;;;;4935428;29;20195;-75
2023/09/08 07:03:02;;;;;;;0.80;0.80;;;19.30;33.90;;;;;;4937170;29;20176;-72
2023/09/08 07:05:29;;;;;;;1.23;0.83;;;18.90;35.30;;;;;;4936101;29;20211;-74
2023/09/08 07:07:56;;;;;;;1.10;0.60;;;19.00;35.60;;;;;;4939083;29;20219;-74
2023/09/08 07:10:24;;;;;;;0.50;0.50;;;18.80;35.40;;;;;;4937121;29;20215;-72
2023/09/08 07:12:51;;;;;;;1.60;0.70;;;18.50;36.00;;;;;;4938482;29;20184;-73
2023/09/08 07:15:19;;;;;;;1.70;0.60;;;17.70;37.80;;;;;;4933867;29;20187;-74
2023/09/08 07:17:46;;;;;;;0.70;0.70;;;17.20;39.00;;;;;;4934530;29;20211;-73
2023/09/08 07:20:13;;;;;;;1.10;0.60;;;17.00;39.90;;;;;;4933794;29;20203;-70
2023/09/08 07:22:41;;;;;;;1.60;0.80;;;16.70;40.60;;;;;;4935823;29;20205;-72
2023/09/08 07:25:09;;;;;;;1.27;1.10;;;16.40;41.20;;;;;;4934295;29;20608;-70
2023/09/08 07:27:37;;;;;;;2.50;0.70;;;16.40;41.70;;;;;;4933864;29;20241;-74
2023/09/08 07:30:04;;;;;;;0.90;0.70;;;16.50;41.60;;;;;;4935413;29;20644;-72
2023/09/08 07:32:32;;;;;;;0.80;0.60;;;16.30;41.90;;;;;;4936456;29;20195;-74
2023/09/08 07:38:39;;;;;;;0.97;0.90;;;16.00;43.20;;;;;;4937016;29;20601;-74
2023/09/08 07:41:06;;;;;;;0.90;0.90;;;15.90;44.10;;;;;;4935813;29;20218;-73
2023/09/08 07:43:34;;;;;;;0.97;0.70;;;15.80;44.90;;;;;;4937250;29;20184;-72
2023/09/08 07:46:01;;;;;;;1.50;0.90;;;15.70;44.80;;;;;;4934352;29;20602;-71
2023/09/08 07:48:29;;;;;;;3.57;0.80;;;15.60;45.40;;;;;;4935783;29;20227;-70
2023/09/08 07:50:58;;;;;;;0.93;0.77;;;15.60;45.50;;;;;;4935743;29;20194;-73
2023/09/08 07:53:25;;;;;;;0.80;0.80;;;15.40;45.50;;;;;;4934151;29;20197;-75
2023/09/08 07:55:53;;;;;;;1.00;0.90;;;15.30;46.00;;;;;;4934852;29;20184;-74
2023/09/08 07:58:20;;;;;;;1.00;0.90;;;15.20;46.30;;;;;;4935401;29;20195;-73
2023/09/08 08:00:48;;;;;;;1.23;0.90;;;15.20;46.80;;;;;;4934965;29;20188;-71
2023/09/08 08:03:15;;;;;;;0.90;0.90;;;15.10;47.00;;;;;;4917916;29;20242;-73
2023/09/08 08:05:42;;;;;;;1.33;1.23;;;15.00;47.20;;;;;;4935169;29;20553;-72
2023/09/08 08:08:10;;;;;;;0.80;0.80;;;15.00;47.60;;;;;;4935422;29;20229;-70
2023/09/08 08:10:37;;;;;;;0.80;0.80;;;15.00;47.70;;;;;;4936173;29;20184;-72
2023/09/08 08:13:04;;;;;;;1.30;1.20;;;14.90;48.20;;;;;;4935909;29;20193;-73
2023/09/08 08:15:40;;;;;;;0.80;0.70;;;14.80;48.10;;;;;;4936091;29;20267;-70
2023/09/08 08:18:09;;;;;;;3.07;0.80;;;14.80;48.00;;;;;;4935440;29;20223;-72
2023/09/08 08:20:37;;;;;;;1.83;0.83;;;14.80;48.00;;;;;;4935085;29;20262;-70
2023/09/08 08:23:06;;;;;;;0.70;0.70;;;14.80;48.30;;;;;;4933293;29;20550;-73
2023/09/08 08:25:34;;;;;;;1.20;1.00;;;14.70;48.60;;;;;;4935228;29;20192;-71
2023/09/08 08:28:02;;;;;;;3.83;0.80;;;14.70;48.80;;;;;;4934093;29;20227;-73
2023/09/08 08:30:30;;;;;;;0.80;0.80;;;14.70;48.40;;;;;;4935577;29;20192;-73
2023/09/08 08:32:57;;;;;;;0.93;0.90;;;14.70;48.10;;;;;;4932225;29;20283;-75
2023/09/08 08:35:25;;;;;;;0.80;0.80;;;14.70;48.10;;;;;;4934098;29;20254;-72
2023/09/08 08:37:52;;;;;;;1.10;1.00;;;14.70;48.40;;;;;;4932232;29;20243;-71
2023/09/08 08:40:19;;;;;;;2.30;1.00;;;14.60;47.80;;;;;;4933463;29;20582;-72
2023/09/08 08:42:47;;;;;;;2.30;1.10;;;14.50;47.30;;;;;;4929658;29;20192;-73
2023/09/08 08:45:19;;;;;;;3.20;1.40;;;14.50;46.90;;;;;;4935467;29;20606;-73
2023/09/08 08:47:47;;;;;;;1.53;1.10;;;14.50;47.50;;;;;;4935374;29;20223;-71
2023/09/08 08:50:14;;;;;;;0.93;0.93;;;14.40;47.40;;;;;;4928239;29;20521;-72
2023/09/08 08:52:42;;;;;;;1.33;0.90;;;14.30;47.40;;;;;;4929713;29;20180;-73
2023/09/08 08:55:10;;;;;;;0.90;0.90;;;14.30;47.80;;;;;;4934852;29;20184;-73
2023/09/08 08:57:41;;;;;;;1.23;0.90;;;14.20;47.80;;;;;;4934354;29;20191;-72
2023/09/08 09:00:11;;;;;;;1.70;1.00;;;14.20;47.70;;;;;;4935421;29;20666;-73
2023/09/08 09:02:45;;;;;;;1.83;1.00;;;14.20;47.60;;;;;;4935576;29;20192;-71
2023/09/08 09:05:13;;;;;;;1.80;1.20;;;14.10;48.20;;;;;;4933881;29;20196;-72
2023/09/08 09:07:42;;;;;;;1.37;1.00;;;14.10;48.20;;;;;;4935449;29;20714;-72
2023/09/08 09:10:10;;;;;;;1.73;0.93;;;14.00;48.10;;;;;;4935190;29;20184;-70
2023/09/08 09:12:39;;;;;;;1.33;1.03;;;14.00;48.40;;;;;;4935395;29;20275;-74
2023/09/08 09:15:08;;;;;;;2.17;1.33;;;13.90;48.60;;;;;;4934679;29;20195;-72
2023/09/08 09:17:35;;;;;;;1.10;1.00;;;13.90;49.10;;;;;;4932875;29;20595;-72
2023/09/08 09:20:20;;;;;;;1.47;1.07;;;13.90;48.80;;;;;;4934611;29;20196;-74
2023/09/08 09:22:49;;;;;;;1.97;1.20;;;13.90;49.20;;;;;;4933830;29;20188;-72
2023/09/08 09:25:28;;;;;;;3.40;1.23;;;13.80;49.50;;;;;;4934716;29;20262;-75
2023/09/08 09:28:00;;;;;;;1.30;1.20;;;13.80;50.00;;;;;;4934404;29;20231;-73
2023/09/08 09:30:30;;;;;;;1.00;1.00;;;13.80;50.00;;;;;;4935109;29;20180;-74
2023/09/08 09:33:05;;;;;;;1.30;1.17;;;13.80;50.00;;;;;;4933422;29;20269;-73
2023/09/08 09:35:43;;;;;;;2.20;1.23;;;13.70;50.10;;;;;;4933430;29;20226;-74
2023/09/08 09:38:11;;;;;;;1.60;1.10;;;13.70;50.40;;;;;;4933265;29;20250;-72
2023/09/08 09:40:39;;;;;;;2.80;1.20;;;13.70;50.50;;;;;;4934143;29;20609;-75
2023/09/08 09:43:07;;;;;;;5.47;4.23;;;13.70;51.20;;;;;;4934244;29;20184;-74
2023/09/08 09:45:36;;;;;;;10.03;3.53;;;13.60;51.00;;;;;;4934831;29;20285;-73
2023/09/08 09:48:05;;;;;;;2.90;1.60;;;13.60;51.70;;;;;;4933870;29;20223;-74
2023/09/08 09:50:34;;;;;;;3.07;1.93;;;13.50;51.60;;;;;;4934403;29;20207;-74
2023/09/08 09:53:22;;;;;;;2.57;2.00;;;13.50;52.20;;;;;;4934826;29;20183;-75
2023/09/08 09:55:50;;;;;;;3.30;1.70;;;13.50;51.60;;;;;;4933824;29;20294;-73
2023/09/08 09:58:19;;;;;;;2.90;2.30;;;13.50;51.40;;;;;;4934190;29;20279;-74
2023/09/08 10:00:47;;;;;;;11.20;6.03;;;13.50;51.40;;;;;;4932745;29;20274;-75
2023/09/08 10:03:15;;;;;;;5.13;3.83;;;13.50;51.80;;;;;;4934052;29;20184;-75
2023/09/08 10:05:43;;;;;;;3.53;2.73;;;13.40;51.50;;;;;;4933951;29;20213;-73
2023/09/08 10:08:10;;;;;;;3.47;2.10;;;13.40;51.70;;;;;;4934072;29;20827;-74
2023/09/08 10:10:41;;;;;;;1.20;1.10;;;13.40;51.80;;;;;;4934319;29;20246;-73
2023/09/08 10:13:11;;;;;;;1.20;1.10;;;13.30;51.80;;;;;;4934136;29;20199;-73
2023/09/08 10:15:40;;;;;;;2.53;1.17;;;13.30;51.90;;;;;;4934322;29;20274;-75
2023/09/08 10:18:10;;;;;;;1.37;1.10;;;13.30;52.30;;;;;;4933882;29;20188;-73
2023/09/08 10:20:38;;;;;;;4.03;1.40;;;13.20;51.70;;;;;;4934727;29;20238;-74
2023/09/08 10:23:28;;;;;;;1.30;1.13;;;13.30;52.50;;;;;;4934599;29;20184;-78
2023/09/08 10:26:00;;;;;;;3.17;1.53;;;13.20;51.90;;;;;;4933731;29;20276;-74
2023/09/08 10:28:29;;;;;;;4.23;1.47;;;13.20;52.20;;;;;;4934543;29;20232;-74
2023/09/08 10:30:56;;;;;;;3.90;1.80;;;13.20;52.70;;;;;;4934891;29;20183;-74
2023/09/08 10:33:25;;;;;;;1.70;1.33;;;13.10;52.90;;;;;;4936021;29;20218;-73
2023/09/08 10:35:53;;;;;;;3.27;1.50;;;13.00;52.90;;;;;;4937949;29;20255;-74
2023/09/08 10:38:27;;;;;;;2.07;1.23;;;12.90;53.40;;;;;;4939118;29;20243;-73
2023/09/08 10:41:31;;;;;;;2.80;1.40;;;13.00;53.70;;;;;;4942740;29;20246;-73
2023/09/08 10:44:09;;;;;;;2.23;1.40;;;12.90;54.20;;;;;;4865252;29;20677;-75
2023/09/08 10:46:38;;;;;;;4.77;3.40;;;12.90;53.80;;;;;;4929163;29;20211;-72
2023/09/08 10:49:07;;;;;;;2.80;2.07;;;12.80;54.50;;;;;;4936674;29;20545;-73
2023/09/08 10:51:34;;;;;;;3.23;1.67;;;12.80;54.80;;;;;;4939836;29;20235;-75
2023/09/08 10:54:04;;;;;;;1.63;1.10;;;12.80;54.70;;;;;;4938059;29;20194;-73
2023/09/08 10:56:55;;;;;;;7.20;2.00;;;12.80;54.40;;;;;;4937615;29;20942;-73
2023/09/08 10:59:29;;;;;;;3.17;1.53;;;12.80;54.70;;;;;;4938141;29;20211;-74
2023/09/08 11:01:57;;;;;;;3.17;1.50;;;12.80;54.30;;;;;;4938221;29;20231;-74
2023/09/08 11:04:25;;;;;;;4.63;1.47;;;12.80;54.90;;;;;;4938205;29;20192;-77
2023/09/08 11:06:52;;;;;;;3.10;1.60;;;12.80;54.40;;;;;;4936602;29;20216;-74
2023/09/08 11:09:21;;;;;;;3.23;1.40;;;12.80;54.50;;;;;;4937781;29;20662;-73
2023/09/08 11:11:48;;;;;;;4.97;1.57;;;12.80;54.30;;;;;;4936420;29;20554;-72
2023/09/08 11:14:16;;;;;;;4.67;3.73;;;12.80;54.20;;;;;;4935126;29;20223;-74
2023/09/08 11:16:44;;;;;;;4.80;2.50;;;12.80;54.30;;;;;;4937322;29;20192;-75
2023/09/08 11:19:12;;;;;;;6.70;3.03;;;12.80;54.60;;;;;;4936566;29;20188;-74
2023/09/08 11:21:39;;;;;;;4.43;3.50;;;12.80;54.90;;;;;;4937840;29;20685;-72
2023/09/08 11:24:07;;;;;;;6.67;2.10;;;12.80;55.60;;;;;;4936558;29;20243;-72
2023/09/08 11:26:35;;;;;;;4.20;2.03;;;12.70;55.80;;;;;;4937428;29;20220;-74
2023/09/08 11:29:03;;;;;;;3.20;1.90;;;12.80;55.90;;;;;;4937203;29;20199;-74
2023/09/08 11:31:30;;;;;;;3.07;1.60;;;12.70;56.60;;;;;;4937533;29;20256;-74
2023/09/08 11:33:59;;;;;;;3.43;1.50;;;12.70;56.30;;;;;;4936068;29;20518;-73
2023/09/08 11:36:28;;;;;;;3.53;1.30;;;12.70;56.50;;;;;;4936937;29;20191;-74
2023/09/08 11:38:55;;;;;;;8.33;1.40;;;12.60;56.30;;;;;;4937931;29;20279;-71
2023/09/08 11:41:23;;;;;;;4.20;1.30;;;12.60;56.30;;;;;;4935795;29;20245;-74
2023/09/08 11:43:51;;;;;;;3.07;1.43;;;12.60;56.40;;;;;;4936444;29;20723;-73
2023/09/08 11:46:19;;;;;;;7.27;2.00;;;12.60;56.70;;;;;;4936306;29;20207;-73
2023/09/08 11:48:47;;;;;;;2.10;1.50;;;12.50;56.40;;;;;;4934960;29;20270;-73
2023/09/08 11:51:15;;;;;;;2.77;1.43;;;12.50;56.80;;;;;;4936415;29;20192;-74
2023/09/08 11:53:43;;;;;;;5.20;1.83;;;12.50;57.00;;;;;;4937284;29;20549;-75
2023/09/08 11:56:10;;;;;;;3.03;1.60;;;12.50;56.60;;;;;;4934301;29;20196;-74
2023/09/08 11:58:37;;;;;;;2.90;1.43;;;12.50;56.80;;;;;;4936929;29;20188;-74
2023/09/08 12:01:05;;;;;;;4.17;1.33;;;12.50;56.50;;;;;;4940053;29;20553;-75
2023/09/08 12:03:33;;;;;;;2.90;1.43;;;12.50;56.60;;;;;;4935917;29;20188;-74
2023/09/08 12:06:02;;;;;;;5.17;1.50;;;12.40;56.50;;;;;;4936133;29;20278;-72
2023/09/08 12:08:29;;;;;;;4.53;1.50;;;12.50;56.10;;;;;;4931754;29;20204;-74
2023/09/08 12:10:57;;;;;;;2.23;1.23;;;12.40;55.90;;;;;;4933897;29;20199;-75
2023/09/08 12:13:24;;;;;;;6.13;1.73;;;12.40;56.20;;;;;;4936429;29;20670;-75
2023/09/08 12:15:52;;;;;;;5.67;1.63;;;12.40;56.30;;;;;;4936514;29;20188;-73
2023/09/08 12:18:37;;;;;;;4.30;2.37;;;12.40;56.00;;;;;;4934428;29;20184;-73
2023/09/08 12:21:05;;;;;;;3.27;1.60;;;12.40;55.70;;;;;;4934294;29;20200;-74
2023/09/08 12:23:33;;;;;;;4.53;1.50;;;12.40;55.60;;;;;;4936280;29;20184;-75
2023/09/08 12:26:01;;;;;;;2.83;1.53;;;12.40;55.40;;;;;;4934233;29;20184;-75
2023/09/08 12:28:31;;;;;;;3.57;1.47;;;12.50;55.80;;;;;;4921070;29;20216;-75
2023/09/08 12:30:59;;;;;;;3.17;1.70;;;12.40;55.50;;;;;;4935835;29;20206;-72
2023/09/08 12:33:27;;;;;;;3.80;1.67;;;12.30;55.30;;;;;;4937768;29;20260;-72
2023/09/08 12:35:55;;;;;;;4.00;1.63;;;12.30;55.60;;;;;;4935092;29;20306;-75
2023/09/08 12:38:23;;;;;;;3.87;1.60;;;12.30;55.60;;;;;;4935544;29;20279;-75
2023/09/08 12:40:50;;;;;;;2.47;1.40;;;12.30;55.70;;;;;;4935919;29;20201;-74
2023/09/08 12:43:17;;;;;;;5.43;2.00;;;12.30;55.90;;;;;;4935320;29;20196;-74
2023/09/08 12:45:46;;;;;;;2.97;1.60;;;12.20;55.70;;;;;;4936470;29;20194;-74
2023/09/08 12:48:13;;;;;;;3.17;1.97;;;12.20;55.80;;;;;;4935560;29;20258;-75
2023/09/08 12:50:41;;;;;;;3.60;1.50;;;12.20;56.20;;;;;;4935878;29;20227;-74
2023/09/08 12:53:08;;;;;;;4.73;2.07;;;12.20;55.80;;;;;;4933839;29;20184;-74
2023/09/08 12:55:35;;;;;;;3.57;1.70;;;12.10;55.90;;;;;;4935444;29;20606;-74